Terminal Aerodrome Forecast
Issued by NWS

Home | Current Version | Previous Version | Text Only | Print | Product List | Glossary On
Versions: 1 2 3 4 5 6 7 8 9 10 11 12 13 14 15 16
000
FTUS43 KILX 301100
TAFCMI
TAF
KCMI 301137Z 3012/3112 20008KT P6SM VCSH BKN050
     FM301700 21014G20KT P6SM VCTS BKN035CB
     FM310000 20007KT P6SM VCSH BKN040=

USA.gov is the U.S. government's official web portal to all federal, state and local government web resources and services.